sensor_id;sensor_type;location;lat;lon;timestamp;temperature;humidity
36322;DHT22;23564;48.290;11.460;2023-01-19T00:01:54;0.20;99.90
36322;DHT22;23564;48.290;11.460;2023-01-19T00:04:20;0.20;99.90
36322;DHT22;23564;48.290;11.460;2023-01-19T00:06:45;0.20;99.90
36322;DHT22;23564;48.290;11.460;2023-01-19T00:09:11;0.20;99.90
36322;DHT22;23564;48.290;11.460;2023-01-19T00:11:36;0.10;99.90
36322;DHT22;23564;48.290;11.460;2023-01-19T00:14:02;0.10;99.90
36322;DHT22;23564;48.290;11.460;2023-01-19T00:16:28;0.10;99.90
36322;DHT22;23564;48.290;11.460;2023-01-19T00:18:53;0.10;99.90
36322;DHT22;23564;48.290;11.460;2023-01-19T00:21:20;0.10;99.90
36322;DHT22;23564;48.290;11.460;2023-01-19T00:23:47;0.10;99.90
36322;DHT22;23564;48.290;11.460;2023-01-19T00:26:15;0.10;99.90
36322;DHT22;23564;48.290;11.460;2023-01-19T00:28:42;0.10;99.90
36322;DHT22;23564;48.290;11.460;2023-01-19T00:31:08;0.10;99.90
36322;DHT22;23564;48.290;11.460;2023-01-19T00:33:34;0.10;99.90
36322;DHT22;23564;48.290;11.460;2023-01-19T00:35:59;0.10;99.90
36322;DHT22;23564;48.290;11.460;2023-01-19T00:38:25;0.10;99.90
36322;DHT22;23564;48.290;11.460;2023-01-19T00:40:50;0.10;99.90
36322;DHT22;23564;48.290;11.460;2023-01-19T00:43:16;0.10;99.90
36322;DHT22;23564;48.290;11.460;2023-01-19T00:45:41;0.10;99.90
36322;DHT22;23564;48.290;11.460;2023-01-19T00:48:07;0.10;99.90
36322;DHT22;23564;48.290;11.460;2023-01-19T00:50:33;0.10;99.90
36322;DHT22;23564;48.290;11.460;2023-01-19T00:52:59;0.20;99.90
36322;DHT22;23564;48.290;11.460;2023-01-19T00:55:26;0.20;99.90
36322;DHT22;23564;48.290;11.460;2023-01-19T00:57:55;0.20;99.90
36322;DHT22;23564;48.290;11.460;2023-01-19T01:00:21;0.20;99.90
36322;DHT22;23564;48.290;11.460;2023-01-19T01:02:48;0.20;99.90
36322;DHT22;23564;48.290;11.460;2023-01-19T01:05:14;0.20;99.90
36322;DHT22;23564;48.290;11.460;2023-01-19T01:07:40;0.20;99.90
36322;DHT22;23564;48.290;11.460;2023-01-19T01:10:29;0.30;99.90
36322;DHT22;23564;48.290;11.460;2023-01-19T01:12:55;0.30;99.90
36322;DHT22;23564;48.290;11.460;2023-01-19T01:15:20;0.30;99.90
36322;DHT22;23564;48.290;11.460;2023-01-19T01:17:46;0.30;99.90
36322;DHT22;23564;48.290;11.460;2023-01-19T01:20:17;0.30;99.90
36322;DHT22;23564;48.290;11.460;2023-01-19T01:22:45;0.40;99.90
36322;DHT22;23564;48.290;11.460;2023-01-19T01:25:13;0.40;99.90
36322;DHT22;23564;48.290;11.460;2023-01-19T01:27:38;0.50;99.90
36322;DHT22;23564;48.290;11.460;2023-01-19T01:30:05;0.50;99.90
36322;DHT22;23564;48.290;11.460;2023-01-19T01:32:31;0.50;99.90
36322;DHT22;23564;48.290;11.460;2023-01-19T01:34:56;0.50;99.90
36322;DHT22;23564;48.290;11.460;2023-01-19T01:37:23;0.50;99.90
36322;DHT22;23564;48.290;11.460;2023-01-19T01:39:48;0.50;99.90
36322;DHT22;23564;48.290;11.460;2023-01-19T01:42:19;0.50;99.90
36322;DHT22;23564;48.290;11.460;2023-01-19T01:44:51;0.50;99.90
36322;DHT22;23564;48.290;11.460;2023-01-19T01:47:42;0.50;99.90
36322;DHT22;23564;48.290;11.460;2023-01-19T01:50:10;0.40;99.90
36322;DHT22;23564;48.290;11.460;2023-01-19T01:52:43;0.40;99.90
36322;DHT22;23564;48.290;11.460;2023-01-19T01:55:10;0.40;99.90
36322;DHT22;23564;48.290;11.460;2023-01-19T01:57:41;0.40;99.90
36322;DHT22;23564;48.290;11.460;2023-01-19T02:00:10;0.30;99.90
36322;DHT22;23564;48.290;11.460;2023-01-19T02:02:36;0.30;99.90
36322;DHT22;23564;48.290;11.460;2023-01-19T02:05:33;0.30;99.90
36322;DHT22;23564;48.290;11.460;2023-01-19T02:08:15;0.30;99.90
36322;DHT22;23564;48.290;11.460;2023-01-19T02:11:02;0.30;99.90
36322;DHT22;23564;48.290;11.460;2023-01-19T02:13:46;0.30;99.90
36322;DHT22;23564;48.290;11.460;2023-01-19T02:16:13;0.40;99.90
36322;DHT22;23564;48.290;11.460;2023-01-19T02:18:40;0.30;99.90
36322;DHT22;23564;48.290;11.460;2023-01-19T02:23:51;0.30;99.90
36322;DHT22;23564;48.290;11.460;2023-01-19T02:26:24;0.40;99.90
36322;DHT22;23564;48.290;11.460;2023-01-19T02:29:02;0.40;99.90
36322;DHT22;23564;48.290;11.460;2023-01-19T02:31:29;0.30;99.90
36322;DHT22;23564;48.290;11.460;2023-01-19T02:33:56;0.30;99.90
36322;DHT22;23564;48.290;11.460;2023-01-19T02:36:25;0.30;99.90
36322;DHT22;23564;48.290;11.460;2023-01-19T02:38:52;0.30;99.90
36322;DHT22;23564;48.290;11.460;2023-01-19T02:41:23;0.30;99.90
36322;DHT22;23564;48.290;11.460;2023-01-19T02:43:51;0.30;99.90
36322;DHT22;23564;48.290;11.460;2023-01-19T02:46:18;0.30;99.90
36322;DHT22;23564;48.290;11.460;2023-01-19T02:48:43;0.30;99.90
36322;DHT22;23564;48.290;11.460;2023-01-19T02:51:23;0.30;99.90
36322;DHT22;23564;48.290;11.460;2023-01-19T02:54:12;0.30;99.90
36322;DHT22;23564;48.290;11.460;2023-01-19T03:08:13;0.20;99.90
36322;DHT22;23564;48.290;11.460;2023-01-19T03:13:31;0.30;99.90
36322;DHT22;23564;48.290;11.460;2023-01-19T03:16:15;0.20;99.90
36322;DHT22;23564;48.290;11.460;2023-01-19T03:18:46;0.20;99.90
36322;DHT22;23564;48.290;11.460;2023-01-19T03:21:15;0.20;99.90
36322;DHT22;23564;48.290;11.460;2023-01-19T03:23:44;0.10;99.90
36322;DHT22;23564;48.290;11.460;2023-01-19T03:26:14;0.10;99.90
36322;DHT22;23564;48.290;11.460;2023-01-19T03:28:41;0.00;99.90
36322;DHT22;23564;48.290;11.460;2023-01-19T03:31:21;0.00;99.90
36322;DHT22;23564;48.290;11.460;2023-01-19T03:33:54;0.00;99.90
36322;DHT22;23564;48.290;11.460;2023-01-19T03:36:45;-0.10;99.90
36322;DHT22;23564;48.290;11.460;2023-01-19T03:39:16;-0.10;99.90
36322;DHT22;23564;48.290;11.460;2023-01-19T03:41:46;-0.10;99.90
36322;DHT22;23564;48.290;11.460;2023-01-19T03:44:12;-0.20;99.90
36322;DHT22;23564;48.290;11.460;2023-01-19T03:46:39;-0.20;99.90
36322;DHT22;23564;48.290;11.460;2023-01-19T03:49:05;-0.20;99.90
36322;DHT22;23564;48.290;11.460;2023-01-19T03:51:35;-0.20;99.90
36322;DHT22;23564;48.290;11.460;2023-01-19T03:54:02;-0.30;99.90
36322;DHT22;23564;48.290;11.460;2023-01-19T03:56:28;-0.30;99.90
36322;DHT22;23564;48.290;11.460;2023-01-19T03:58:54;-0.40;99.90
36322;DHT22;23564;48.290;11.460;2023-01-19T04:01:19;-0.40;99.90
36322;DHT22;23564;48.290;11.460;2023-01-19T04:03:50;-0.50;99.90
36322;DHT22;23564;48.290;11.460;2023-01-19T04:06:16;-0.60;99.90
36322;DHT22;23564;48.290;11.460;2023-01-19T04:08:42;-0.60;99.90
36322;DHT22;23564;48.290;11.460;2023-01-19T04:11:07;-0.70;99.90
36322;DHT22;23564;48.290;11.460;2023-01-19T04:13:34;-0.70;99.90
36322;DHT22;23564;48.290;11.460;2023-01-19T04:16:01;-0.70;99.90
36322;DHT22;23564;48.290;11.460;2023-01-19T04:18:28;-0.80;99.90
36322;DHT22;23564;48.290;11.460;2023-01-19T04:20:54;-0.80;99.90
36322;DHT22;23564;48.290;11.460;2023-01-19T04:23:19;-0.90;99.90
36322;DHT22;23564;48.290;11.460;2023-01-19T04:25:45;-1.10;99.90
36322;DHT22;23564;48.290;11.460;2023-01-19T04:28:11;-1.00;99.90
36322;DHT22;23564;48.290;11.460;2023-01-19T04:30:36;-1.10;99.90
36322;DHT22;23564;48.290;11.460;2023-01-19T04:33:02;-1.20;99.90
36322;DHT22;23564;48.290;11.460;2023-01-19T04:35:28;-1.20;99.90
36322;DHT22;23564;48.290;11.460;2023-01-19T04:37:53;-1.20;99.90
36322;DHT22;23564;48.290;11.460;2023-01-19T04:40:19;-1.20;99.90
36322;DHT22;23564;48.290;11.460;2023-01-19T04:42:45;-1.20;99.90
36322;DHT22;23564;48.290;11.460;2023-01-19T04:45:12;-1.20;99.90
36322;DHT22;23564;48.290;11.460;2023-01-19T04:47:38;-1.20;99.90
36322;DHT22;23564;48.290;11.460;2023-01-19T04:50:04;-1.20;99.90
36322;DHT22;23564;48.290;11.460;2023-01-19T04:52:35;-1.30;99.90
36322;DHT22;23564;48.290;11.460;2023-01-19T04:55:01;-1.30;99.90
36322;DHT22;23564;48.290;11.460;2023-01-19T04:57:27;-1.30;99.90
36322;DHT22;23564;48.290;11.460;2023-01-19T04:59:54;-1.20;99.90
36322;DHT22;23564;48.290;11.460;2023-01-19T05:02:20;-1.20;99.90
36322;DHT22;23564;48.290;11.460;2023-01-19T05:04:47;-1.20;99.90
36322;DHT22;23564;48.290;11.460;2023-01-19T05:07:12;-1.30;99.90
36322;DHT22;23564;48.290;11.460;2023-01-19T05:09:38;-1.30;99.90
36322;DHT22;23564;48.290;11.460;2023-01-19T05:12:04;-1.40;99.90
36322;DHT22;23564;48.290;11.460;2023-01-19T05:14:29;-1.40;99.90
36322;DHT22;23564;48.290;11.460;2023-01-19T05:16:55;-1.30;99.90
36322;DHT22;23564;48.290;11.460;2023-01-19T05:19:21;-1.30;99.90
36322;DHT22;23564;48.290;11.460;2023-01-19T05:21:47;-1.30;99.90
36322;DHT22;23564;48.290;11.460;2023-01-19T05:24:12;-1.30;99.90
36322;DHT22;23564;48.290;11.460;2023-01-19T05:26:38;-1.20;99.90
36322;DHT22;23564;48.290;11.460;2023-01-19T05:29:03;-1.20;99.90
36322;DHT22;23564;48.290;11.460;2023-01-19T05:31:29;-1.30;99.90
36322;DHT22;23564;48.290;11.460;2023-01-19T05:33:55;-1.20;99.90
36322;DHT22;23564;48.290;11.460;2023-01-19T05:36:20;-1.30;99.90
36322;DHT22;23564;48.290;11.460;2023-01-19T05:38:46;-1.30;99.90
36322;DHT22;23564;48.290;11.460;2023-01-19T05:41:11;-1.30;99.90
36322;DHT22;23564;48.290;11.460;2023-01-19T05:43:37;-1.30;99.90
36322;DHT22;23564;48.290;11.460;2023-01-19T05:46:03;-1.40;99.90
36322;DHT22;23564;48.290;11.460;2023-01-19T05:48:29;-1.50;99.90
36322;DHT22;23564;48.290;11.460;2023-01-19T05:50:59;-1.50;99.90
36322;DHT22;23564;48.290;11.460;2023-01-19T05:53:25;-1.50;99.90
36322;DHT22;23564;48.290;11.460;2023-01-19T05:55:50;-1.50;99.90
36322;DHT22;23564;48.290;11.460;2023-01-19T05:58:16;-1.50;99.90
36322;DHT22;23564;48.290;11.460;2023-01-19T06:00:41;-1.40;99.90
36322;DHT22;23564;48.290;11.460;2023-01-19T06:03:07;-1.40;99.90
36322;DHT22;23564;48.290;11.460;2023-01-19T06:05:33;-1.30;99.90
36322;DHT22;23564;48.290;11.460;2023-01-19T06:08:00;-1.30;99.90
36322;DHT22;23564;48.290;11.460;2023-01-19T06:10:25;-1.30;99.90
36322;DHT22;23564;48.290;11.460;2023-01-19T06:12:51;-1.20;99.90
36322;DHT22;23564;48.290;11.460;2023-01-19T06:15:17;-1.20;99.90
36322;DHT22;23564;48.290;11.460;2023-01-19T06:17:43;-1.20;99.90
36322;DHT22;23564;48.290;11.460;2023-01-19T06:20:09;-1.10;99.90
36322;DHT22;23564;48.290;11.460;2023-01-19T06:22:35;-1.10;99.90
36322;DHT22;23564;48.290;11.460;2023-01-19T06:25:01;-1.20;99.90
36322;DHT22;23564;48.290;11.460;2023-01-19T06:27:26;-1.20;99.90
36322;DHT22;23564;48.290;11.460;2023-01-19T06:29:52;-1.30;99.90
36322;DHT22;23564;48.290;11.460;2023-01-19T06:32:18;-1.30;99.90
36322;DHT22;23564;48.290;11.460;2023-01-19T06:34:44;-1.40;99.90
36322;DHT22;23564;48.290;11.460;2023-01-19T06:37:10;-1.50;99.90
36322;DHT22;23564;48.290;11.460;2023-01-19T06:39:36;-1.60;99.90
36322;DHT22;23564;48.290;11.460;2023-01-19T06:42:05;-1.70;99.90
36322;DHT22;23564;48.290;11.460;2023-01-19T06:44:31;-1.80;99.90
36322;DHT22;23564;48.290;11.460;2023-01-19T06:46:56;-1.80;99.90
36322;DHT22;23564;48.290;11.460;2023-01-19T06:49:22;-1.90;99.90
36322;DHT22;23564;48.290;11.460;2023-01-19T06:51:48;-2.00;99.90
36322;DHT22;23564;48.290;11.460;2023-01-19T06:54:13;-1.90;99.90
36322;DHT22;23564;48.290;11.460;2023-01-19T06:56:39;-2.00;99.90
36322;DHT22;23564;48.290;11.460;2023-01-19T06:59:04;-2.00;99.90
36322;DHT22;23564;48.290;11.460;2023-01-19T07:01:30;-2.00;99.90
36322;DHT22;23564;48.290;11.460;2023-01-19T07:03:57;-2.00;99.90
36322;DHT22;23564;48.290;11.460;2023-01-19T07:06:22;-2.10;99.90
36322;DHT22;23564;48.290;11.460;2023-01-19T07:08:48;-2.10;99.90
36322;DHT22;23564;48.290;11.460;2023-01-19T07:11:14;-2.10;99.90
36322;DHT22;23564;48.290;11.460;2023-01-19T07:13:40;-2.00;99.90
36322;DHT22;23564;48.290;11.460;2023-01-19T07:16:10;-2.00;99.90
36322;DHT22;23564;48.290;11.460;2023-01-19T07:18:37;-2.00;99.90
36322;DHT22;23564;48.290;11.460;2023-01-19T07:21:04;-1.90;99.90
36322;DHT22;23564;48.290;11.460;2023-01-19T07:23:29;-2.00;99.90
36322;DHT22;23564;48.290;11.460;2023-01-19T07:25:59;-2.00;99.90
36322;DHT22;23564;48.290;11.460;2023-01-19T07:28:28;-1.90;99.90
36322;DHT22;23564;48.290;11.460;2023-01-19T07:30:54;-1.80;99.90
36322;DHT22;23564;48.290;11.460;2023-01-19T07:33:21;-1.70;99.90
36322;DHT22;23564;48.290;11.460;2023-01-19T07:35:47;-1.60;99.90
36322;DHT22;23564;48.290;11.460;2023-01-19T07:38:13;-1.60;99.90
36322;DHT22;23564;48.290;11.460;2023-01-19T07:40:39;-1.50;99.90
36322;DHT22;23564;48.290;11.460;2023-01-19T07:43:04;-1.50;99.90
36322;DHT22;23564;48.290;11.460;2023-01-19T07:45:30;-1.50;99.90
36322;DHT22;23564;48.290;11.460;2023-01-19T07:47:55;-1.50;99.90
36322;DHT22;23564;48.290;11.460;2023-01-19T07:50:21;-1.40;99.90
36322;DHT22;23564;48.290;11.460;2023-01-19T07:52:50;-1.40;99.90
36322;DHT22;23564;48.290;11.460;2023-01-19T07:55:18;-1.40;99.90
36322;DHT22;23564;48.290;11.460;2023-01-19T07:57:44;-1.40;99.90
36322;DHT22;23564;48.290;11.460;2023-01-19T08:00:12;-1.30;99.90
36322;DHT22;23564;48.290;11.460;2023-01-19T08:02:38;-1.30;95.50
36322;DHT22;23564;48.290;11.460;2023-01-19T08:05:05;-1.20;43.40
36322;DHT22;23564;48.290;11.460;2023-01-19T08:07:32;-1.10;72.90
36322;DHT22;23564;48.290;11.460;2023-01-19T08:09:58;-1.00;1.00
36322;DHT22;23564;48.290;11.460;2023-01-19T08:12:23;-0.90;1.00
36322;DHT22;23564;48.290;11.460;2023-01-19T08:14:49;-0.90;1.00
36322;DHT22;23564;48.290;11.460;2023-01-19T08:17:14;-0.80;1.00
36322;DHT22;23564;48.290;11.460;2023-01-19T08:19:41;-0.80;99.90
36322;DHT22;23564;48.290;11.460;2023-01-19T08:22:07;-0.80;99.90
36322;DHT22;23564;48.290;11.460;2023-01-19T08:24:33;-0.80;99.90
36322;DHT22;23564;48.290;11.460;2023-01-19T08:26:59;-0.80;99.90
36322;DHT22;23564;48.290;11.460;2023-01-19T08:29:25;-0.80;99.90
36322;DHT22;23564;48.290;11.460;2023-01-19T08:31:51;-0.80;99.90
36322;DHT22;23564;48.290;11.460;2023-01-19T08:34:20;-0.70;62.60
36322;DHT22;23564;48.290;11.460;2023-01-19T08:36:46;-0.70;1.00
36322;DHT22;23564;48.290;11.460;2023-01-19T08:39:12;-0.80;1.00
36322;DHT22;23564;48.290;11.460;2023-01-19T08:41:38;-0.70;1.00
36322;DHT22;23564;48.290;11.460;2023-01-19T08:44:04;-0.70;1.00
36322;DHT22;23564;48.290;11.460;2023-01-19T08:46:29;-0.70;1.00
36322;DHT22;23564;48.290;11.460;2023-01-19T08:48:55;-0.70;1.00
36322;DHT22;23564;48.290;11.460;2023-01-19T08:51:21;-0.70;1.00
36322;DHT22;23564;48.290;11.460;2023-01-19T08:53:46;-0.60;1.00
36322;DHT22;23564;48.290;11.460;2023-01-19T08:56:12;-0.60;1.00
36322;DHT22;23564;48.290;11.460;2023-01-19T08:58:40;-0.50;1.00
36322;DHT22;23564;48.290;11.460;2023-01-19T09:01:07;-0.50;99.90
36322;DHT22;23564;48.290;11.460;2023-01-19T09:03:34;-0.50;99.90
36322;DHT22;23564;48.290;11.460;2023-01-19T09:06:01;-0.40;99.90
36322;DHT22;23564;48.290;11.460;2023-01-19T09:08:27;-0.40;99.90
36322;DHT22;23564;48.290;11.460;2023-01-19T09:10:53;-0.30;99.90
36322;DHT22;23564;48.290;11.460;2023-01-19T09:13:19;-0.20;99.90
36322;DHT22;23564;48.290;11.460;2023-01-19T09:15:45;-0.20;99.90
36322;DHT22;23564;48.290;11.460;2023-01-19T09:18:13;-0.20;99.90
36322;DHT22;23564;48.290;11.460;2023-01-19T09:20:40;-0.30;99.90
36322;DHT22;23564;48.290;11.460;2023-01-19T09:23:11;-0.30;1.00
36322;DHT22;23564;48.290;11.460;2023-01-19T09:25:38;-0.30;1.00
36322;DHT22;23564;48.290;11.460;2023-01-19T09:28:05;-0.30;1.00
36322;DHT22;23564;48.290;11.460;2023-01-19T09:30:31;-0.40;69.30
36322;DHT22;23564;48.290;11.460;2023-01-19T09:33:08;-0.30;99.90
36322;DHT22;23564;48.290;11.460;2023-01-19T09:35:39;-0.40;1.00
36322;DHT22;23564;48.290;11.460;2023-01-19T09:38:06;-0.40;99.90
36322;DHT22;23564;48.290;11.460;2023-01-19T09:40:34;-0.60;99.90
36322;DHT22;23564;48.290;11.460;2023-01-19T09:43:15;-0.60;10.50
36322;DHT22;23564;48.290;11.460;2023-01-19T09:45:56;-0.60;99.90
36322;DHT22;23564;48.290;11.460;2023-01-19T09:48:42;-0.60;99.90
36322;DHT22;23564;48.290;11.460;2023-01-19T09:51:16;-0.50;15.00
36322;DHT22;23564;48.290;11.460;2023-01-19T09:53:50;-0.60;63.50
36322;DHT22;23564;48.290;11.460;2023-01-19T09:56:20;-0.60;90.50
36322;DHT22;23564;48.290;11.460;2023-01-19T09:58:48;-0.60;99.90
36322;DHT22;23564;48.290;11.460;2023-01-19T10:06:37;-0.40;72.80
36322;DHT22;23564;48.290;11.460;2023-01-19T10:09:21;-0.40;1.00
36322;DHT22;23564;48.290;11.460;2023-01-19T10:11:56;-0.40;65.60
36322;DHT22;23564;48.290;11.460;2023-01-19T10:15:11;-0.30;1.00
36322;DHT22;23564;48.290;11.460;2023-01-19T10:17:50;-0.30;1.00
36322;DHT22;23564;48.290;11.460;2023-01-19T10:20:32;-0.20;99.90
36322;DHT22;23564;48.290;11.460;2023-01-19T10:22:59;-0.20;36.80
36322;DHT22;23564;48.290;11.460;2023-01-19T10:25:26;-0.10;99.70
36322;DHT22;23564;48.290;11.460;2023-01-19T10:27:52;-0.10;99.90
36322;DHT22;23564;48.290;11.460;2023-01-19T10:30:20;0.00;99.90
36322;DHT22;23564;48.290;11.460;2023-01-19T10:32:48;0.10;99.90
36322;DHT22;23564;48.290;11.460;2023-01-19T10:35:16;0.10;99.90
36322;DHT22;23564;48.290;11.460;2023-01-19T10:37:46;0.20;99.90
36322;DHT22;23564;48.290;11.460;2023-01-19T10:42:39;0.30;99.90
36322;DHT22;23564;48.290;11.460;2023-01-19T10:45:16;0.30;99.90
36322;DHT22;23564;48.290;11.460;2023-01-19T10:47:44;0.30;99.90
36322;DHT22;23564;48.290;11.460;2023-01-19T10:52:54;0.40;1.00
36322;DHT22;23564;48.290;11.460;2023-01-19T10:55:36;0.40;30.50
36322;DHT22;23564;48.290;11.460;2023-01-19T10:58:03;0.50;99.90
36322;DHT22;23564;48.290;11.460;2023-01-19T11:00:33;0.50;99.90
36322;DHT22;23564;48.290;11.460;2023-01-19T11:02:59;0.40;1.00
36322;DHT22;23564;48.290;11.460;2023-01-19T11:05:30;0.40;99.90
36322;DHT22;23564;48.290;11.460;2023-01-19T11:07:56;0.40;99.90
36322;DHT22;23564;48.290;11.460;2023-01-19T11:10:27;0.50;1.00
36322;DHT22;23564;48.290;11.460;2023-01-19T11:12:56;0.60;18.90
36322;DHT22;23564;48.290;11.460;2023-01-19T11:15:29;0.60;99.90
36322;DHT22;23564;48.290;11.460;2023-01-19T11:17:56;0.70;99.90
36322;DHT22;23564;48.290;11.460;2023-01-19T11:20:28;0.70;99.90
36322;DHT22;23564;48.290;11.460;2023-01-19T11:25:32;0.70;99.90
36322;DHT22;23564;48.290;11.460;2023-01-19T11:27:58;0.90;99.90
36322;DHT22;23564;48.290;11.460;2023-01-19T11:30:25;0.90;99.90
36322;DHT22;23564;48.290;11.460;2023-01-19T11:32:51;0.90;99.90
36322;DHT22;23564;48.290;11.460;2023-01-19T11:35:36;0.80;98.50
36322;DHT22;23564;48.290;11.460;2023-01-19T11:40:37;0.90;43.60
36322;DHT22;23564;48.290;11.460;2023-01-19T11:43:03;1.00;48.10
36322;DHT22;23564;48.290;11.460;2023-01-19T11:45:30;1.10;84.00
36322;DHT22;23564;48.290;11.460;2023-01-19T11:47:58;1.10;80.50
36322;DHT22;23564;48.290;11.460;2023-01-19T11:50:32;1.20;65.60
36322;DHT22;23564;48.290;11.460;2023-01-19T11:53:10;1.20;1.00
36322;DHT22;23564;48.290;11.460;2023-01-19T11:55:56;1.30;10.00
36322;DHT22;23564;48.290;11.460;2023-01-19T11:58:23;1.30;1.00
36322;DHT22;23564;48.290;11.460;2023-01-19T12:03:32;1.20;1.00
36322;DHT22;23564;48.290;11.460;2023-01-19T12:06:15;1.20;1.00
36322;DHT22;23564;48.290;11.460;2023-01-19T12:08:47;1.10;1.00
36322;DHT22;23564;48.290;11.460;2023-01-19T12:11:18;1.10;1.00
36322;DHT22;23564;48.290;11.460;2023-01-19T12:13:46;1.10;1.00
36322;DHT22;23564;48.290;11.460;2023-01-19T12:16:19;1.10;1.00
36322;DHT22;23564;48.290;11.460;2023-01-19T12:18:51;1.10;1.00
36322;DHT22;23564;48.290;11.460;2023-01-19T12:21:18;1.10;1.00
36322;DHT22;23564;48.290;11.460;2023-01-19T12:26:28;1.10;1.00
36322;DHT22;23564;48.290;11.460;2023-01-19T12:29:09;1.10;99.90
36322;DHT22;23564;48.290;11.460;2023-01-19T12:31:36;1.20;99.90
36322;DHT22;23564;48.290;11.460;2023-01-19T12:36:51;1.40;99.90
36322;DHT22;23564;48.290;11.460;2023-01-19T12:39:20;1.50;99.90
36322;DHT22;23564;48.290;11.460;2023-01-19T12:41:47;1.60;99.90
36322;DHT22;23564;48.290;11.460;2023-01-19T12:44:18;1.70;99.90
36322;DHT22;23564;48.290;11.460;2023-01-19T12:46:46;1.90;99.90
36322;DHT22;23564;48.290;11.460;2023-01-19T12:51:44;2.30;39.70
36322;DHT22;23564;48.290;11.460;2023-01-19T12:54:20;2.30;1.00
36322;DHT22;23564;48.290;11.460;2023-01-19T12:56:48;2.40;1.00
36322;DHT22;23564;48.290;11.460;2023-01-19T12:59:24;2.40;1.00
36322;DHT22;23564;48.290;11.460;2023-01-19T13:05:13;2.50;1.00
36322;DHT22;23564;48.290;11.460;2023-01-19T13:13:28;2.30;1.00
36322;DHT22;23564;48.290;11.460;2023-01-19T13:15:55;2.20;1.00
36322;DHT22;23564;48.290;11.460;2023-01-19T13:18:26;2.20;1.00
36322;DHT22;23564;48.290;11.460;2023-01-19T13:21:00;2.30;1.00
36322;DHT22;23564;48.290;11.460;2023-01-19T13:26:17;2.00;1.00
36322;DHT22;23564;48.290;11.460;2023-01-19T13:28:45;1.90;1.00
36322;DHT22;23564;48.290;11.460;2023-01-19T13:31:13;1.80;1.00
36322;DHT22;23564;48.290;11.460;2023-01-19T13:33:48;1.90;1.00
36322;DHT22;23564;48.290;11.460;2023-01-19T13:36:38;1.90;1.00
36322;DHT22;23564;48.290;11.460;2023-01-19T13:39:39;2.00;1.00
36322;DHT22;23564;48.290;11.460;2023-01-19T13:42:16;2.00;1.00
36322;DHT22;23564;48.290;11.460;2023-01-19T13:44:52;1.90;1.00
36322;DHT22;23564;48.290;11.460;2023-01-19T13:47:24;1.90;1.00
36322;DHT22;23564;48.290;11.460;2023-01-19T13:49:56;1.90;1.00
36322;DHT22;23564;48.290;11.460;2023-01-19T13:52:24;1.80;1.00
36322;DHT22;23564;48.290;11.460;2023-01-19T13:54:57;1.80;1.00
36322;DHT22;23564;48.290;11.460;2023-01-19T13:57:40;1.70;1.00
36322;DHT22;23564;48.290;11.460;2023-01-19T14:00:13;1.70;1.00
36322;DHT22;23564;48.290;11.460;2023-01-19T14:02:50;1.60;1.00
36322;DHT22;23564;48.290;11.460;2023-01-19T14:05:28;1.60;1.00
36322;DHT22;23564;48.290;11.460;2023-01-19T14:10:41;1.60;1.00
36322;DHT22;23564;48.290;11.460;2023-01-19T14:13:20;1.60;1.00
36322;DHT22;23564;48.290;11.460;2023-01-19T14:15:49;1.60;1.00
36322;DHT22;23564;48.290;11.460;2023-01-19T14:21:06;1.60;1.00
36322;DHT22;23564;48.290;11.460;2023-01-19T14:23:52;1.60;1.00
36322;DHT22;23564;48.290;11.460;2023-01-19T14:26:42;1.60;1.00
36322;DHT22;23564;48.290;11.460;2023-01-19T14:29:23;1.60;1.00
36322;DHT22;23564;48.290;11.460;2023-01-19T14:32:02;1.60;1.00
36322;DHT22;23564;48.290;11.460;2023-01-19T14:34:40;1.70;1.00
36322;DHT22;23564;48.290;11.460;2023-01-19T14:37:28;1.70;1.00
36322;DHT22;23564;48.290;11.460;2023-01-19T14:40:00;1.60;1.00
36322;DHT22;23564;48.290;11.460;2023-01-19T14:42:32;1.60;1.00
36322;DHT22;23564;48.290;11.460;2023-01-19T14:45:00;1.50;1.00
36322;DHT22;23564;48.290;11.460;2023-01-19T14:47:34;1.50;1.00
36322;DHT22;23564;48.290;11.460;2023-01-19T14:50:21;1.50;1.00
36322;DHT22;23564;48.290;11.460;2023-01-19T14:52:51;1.40;1.00
36322;DHT22;23564;48.290;11.460;2023-01-19T14:55:22;1.30;1.00
36322;DHT22;23564;48.290;11.460;2023-01-19T14:57:49;1.30;1.00
36322;DHT22;23564;48.290;11.460;2023-01-19T15:00:17;1.30;1.00
36322;DHT22;23564;48.290;11.460;2023-01-19T15:02:45;1.30;17.00
36322;DHT22;23564;48.290;11.460;2023-01-19T15:05:10;1.20;17.00
36322;DHT22;23564;48.290;11.460;2023-01-19T15:07:38;1.20;4.60
36322;DHT22;23564;48.290;11.460;2023-01-19T15:10:12;1.10;5.30
36322;DHT22;23564;48.290;11.460;2023-01-19T15:12:39;1.10;45.70
36322;DHT22;23564;48.290;11.460;2023-01-19T15:15:15;1.10;45.40
36322;DHT22;23564;48.290;11.460;2023-01-19T15:17:41;1.00;65.30
36322;DHT22;23564;48.290;11.460;2023-01-19T15:20:16;1.00;15.10
36322;DHT22;23564;48.290;11.460;2023-01-19T15:22:43;1.00;1.00
36322;DHT22;23564;48.290;11.460;2023-01-19T15:25:12;1.00;1.00
36322;DHT22;23564;48.290;11.460;2023-01-19T15:27:38;1.00;18.10
36322;DHT22;23564;48.290;11.460;2023-01-19T15:32:39;1.00;36.70
36322;DHT22;23564;48.290;11.460;2023-01-19T15:35:15;1.00;14.00
36322;DHT22;23564;48.290;11.460;2023-01-19T15:37:41;0.90;78.10
36322;DHT22;23564;48.290;11.460;2023-01-19T15:40:08;0.90;40.10
36322;DHT22;23564;48.290;11.460;2023-01-19T15:42:34;0.90;94.20
36322;DHT22;23564;48.290;11.460;2023-01-19T15:44:59;0.90;99.90
36322;DHT22;23564;48.290;11.460;2023-01-19T15:47:25;0.90;99.90
36322;DHT22;23564;48.290;11.460;2023-01-19T15:49:50;0.90;99.90
36322;DHT22;23564;48.290;11.460;2023-01-19T15:52:16;0.90;99.90
36322;DHT22;23564;48.290;11.460;2023-01-19T15:54:41;0.80;99.90
36322;DHT22;23564;48.290;11.460;2023-01-19T15:57:08;0.80;99.90
36322;DHT22;23564;48.290;11.460;2023-01-19T15:59:34;0.80;1.00
36322;DHT22;23564;48.290;11.460;2023-01-19T16:01:59;0.80;71.90
36322;DHT22;23564;48.290;11.460;2023-01-19T16:04:25;0.70;1.00
36322;DHT22;23564;48.290;11.460;2023-01-19T16:06:51;0.70;1.00
36322;DHT22;23564;48.290;11.460;2023-01-19T16:09:16;0.70;1.00
36322;DHT22;23564;48.290;11.460;2023-01-19T16:11:44;0.60;99.90
36322;DHT22;23564;48.290;11.460;2023-01-19T16:14:10;0.70;1.00
36322;DHT22;23564;48.290;11.460;2023-01-19T16:16:35;0.70;61.60
36322;DHT22;23564;48.290;11.460;2023-01-19T16:19:01;0.60;87.30
36322;DHT22;23564;48.290;11.460;2023-01-19T16:21:27;0.60;99.90
36322;DHT22;23564;48.290;11.460;2023-01-19T16:23:52;0.60;1.00
36322;DHT22;23564;48.290;11.460;2023-01-19T16:26:44;0.60;1.00
36322;DHT22;23564;48.290;11.460;2023-01-19T16:29:10;0.60;99.90
36322;DHT22;23564;48.290;11.460;2023-01-19T16:31:40;0.60;99.90
36322;DHT22;23564;48.290;11.460;2023-01-19T16:34:06;0.70;99.90
36322;DHT22;23564;48.290;11.460;2023-01-19T16:36:33;0.70;99.90
36322;DHT22;23564;48.290;11.460;2023-01-19T16:39:11;0.70;99.90
36322;DHT22;23564;48.290;11.460;2023-01-19T16:41:37;0.60;99.90
36322;DHT22;23564;48.290;11.460;2023-01-19T16:44:04;0.70;99.90